Clear Lake, South Dakota
Current Conditions -  °F | °C
As of 3:33 AM on Friday 28 Nov 2014 (Local Time) from KCNB Reporting Station
Clear Clear  
Wind Chill: -1°   Ceiling: Unl
Heat Index: 10°   Visibility: 10mi
Dew Point:   Wind: 7mph
Humidity: 85%   Direction: 120°ESE
Pressure: 29.97"   Gusts: NA
Location:  44.75°N, 96.68°W
Report Text: KCNB 280933Z AUTO 12006KT 10SM CLR M12/M14 A2997 RMK AO2 T11221142
Loading
Personal Weather Stations






























Interactive Weather Map New forecast layout! Learn more

10-Day Weather Forecast

Advertisements
Track Severe Weather on mobile